Latest Weather Observations for Viewbank

IDV60901

Issued at 1:11 pm EDT Saturday 21 January 2017 (issued every 10 minutes, with the page automatically refreshed every 10 minutes)

About weather observations | Map of Melbourne area stations | Latest observations for Melbourne area | Other Formats
Station Details ID: 086068 Name: VIEWBANK Lat: -37.74 Lon: 145.10 Height: 66.1 m
Data from the previous 72 hours. | See also: Recent months at Viewbank
Date/Time
EDT
Temp
°C
App
Temp
°C
Dew
Point
°C
Rel
Hum
%
Delta-T
°C
Wind Press
QNH
hPa
Press
MSL
hPa
Rain since
9am
mm
Dir  Spd
km/h
Gust
km/h
Spd
kts
Gust
kts
21/01:00pm 19.8 16.5 11.0 57 4.8 SW 19 28 10 15 1015.8 1015.5 0.0
21/12:30pm 20.2 17.0 11.1 56 5.0 SW 19 28 10 15 1015.8 1015.5 0.0
21/12:00pm 20.4 18.4 10.2 52 5.5 SSW 11 22 6 12 1015.7 1015.4 0.0
21/11:30am 20.3 17.4 9.5 50 5.8 SSW 15 26 8 14 1015.5 1015.2 0.0
21/11:00am 20.0 18.2 12.0 60 4.5 WSW 13 20 7 11 1015.5 1015.2 0.0
21/10:30am 17.7 17.1 12.4 71 2.9 SW 7 13 4 7 1015.6 1015.3 0.0
21/10:00am 15.9 14.9 11.1 73 2.6 SW 7 13 4 7 1015.4 1015.1 0.0
21/09:30am 16.2 15.0 11.6 74 2.5 WSW 9 15 5 8 1015.2 1014.9 0.0
21/09:00am 15.6 14.5 9.9 69 3.0 WSW 6 9 3 5 1015.0 1014.7 1.2
21/08:30am 15.3 15.3 9.7 69 2.9 CALM 0 0 0 0 1014.7 1014.4 1.2
21/08:00am 15.2 15.1 9.3 68 3.0 CALM 0 0 0 0 1014.0 1013.7 1.2
21/07:30am 14.7 13.5 9.5 71 2.7 WSW 6 7 3 4 1013.8 1013.5 1.2
21/07:00am 14.5 13.1 8.9 69 2.9 WSW 6 9 3 5 1013.2 1012.9 1.2
21/06:30am 14.4 13.4 8.8 69 2.8 SSW 4 7 2 4 1012.7 1012.4 1.2
21/06:00am 14.5 12.9 8.2 66 3.2 S 6 13 3 7 1012.4 1012.1 1.2
21/05:30am 14.5 12.9 8.2 66 3.2 SSW 6 11 3 6 1012.0 1011.8 1.2
21/05:00am 14.5 12.8 8.2 66 3.2 S 7 13 4 7 1011.6 1011.4 1.2
21/04:30am 14.5 12.7 8.0 65 3.2 S 7 13 4 7 1011.3 1011.1 1.2
21/04:00am 14.6 12.5 8.1 65 3.3 SSW 9 13 5 7 1011.1 1010.9 1.2
21/03:30am 14.9 11.9 7.7 62 3.6 SSW 13 20 7 11 1010.9 1010.7 1.2
21/03:00am 15.1 12.6 8.1 63 3.5 SW 11 19 6 10 1010.7 1010.5 1.2
21/02:30am 15.2 11.9 8.2 63 3.5 SSW 15 26 8 14 1010.5 1010.3 1.2
21/02:00am 15.3 12.1 8.3 63 3.5 SW 15 22 8 12 1010.3 1010.1 1.2
21/01:30am 15.5 11.4 8.0 61 3.8 SW 19 28 10 15 1010.1 1009.9 1.2
21/01:00am 15.5 12.7 8.7 64 3.5 SW 13 19 7 10 1009.9 1009.7 1.2
21/12:30am 15.5 12.7 8.7 64 3.5 SW 13 19 7 10 1009.9 1009.7 1.2
21/12:00am 15.6 12.1 8.8 64 3.5 SW 17 26 9 14 1009.5 1009.3 1.2
 
Date/Time
EDT
Temp
°C
App
Temp
°C
Dew
Point
°C
Rel
Hum
%
Delta-T
°C
Wind Press
QNH
hPa
Press
MSL
hPa
Rain since
9am
mm
Dir  Spd
km/h
Gust
km/h
Spd
kts
Gust
kts
20/11:30pm 15.7 12.4 9.4 66 3.3 WSW 17 30 9 16 1009.3 1009.1 1.2
20/11:00pm 15.7 12.4 9.4 66 3.3 WSW 17 30 9 16 1009.1 1008.9 1.2
20/10:30pm 15.7 13.1 9.4 66 3.3 WSW 13 26 7 14 1009.0 1008.8 1.2
20/10:00pm 15.9 11.1 8.9 63 3.6 WSW 24 39 13 21 1009.2 1009.0 1.2
20/09:30pm 15.8 11.5 10.8 72 2.7 WSW 24 37 13 20 1008.7 1008.5 1.2
20/09:00pm 16.0 12.2 9.9 67 3.2 WSW 20 30 11 16 1008.5 1008.3 1.2
20/08:30pm 16.0 11.3 9.2 64 3.5 WSW 24 39 13 21 1008.2 1008.0 1.2
20/08:00pm 16.3 11.9 10.4 68 3.1 WSW 24 43 13 23 1007.5 1007.3 1.2
20/07:30pm 16.5 10.9 10.1 66 3.4 WSW 30 44 16 24 1006.9 1006.7 1.2
20/07:22pm 16.8 11.5 9.7 63 3.7 WSW 28 46 15 25 1006.6 1006.4 1.2
20/07:00pm 17.4 12.7 10.5 64 3.7 WSW 26 41 14 22 1006.3 1006.1 1.2
20/06:37pm 17.1 11.9 10.2 64 3.7 WSW 28 48 15 26 1005.6 1005.4 1.2
20/06:30pm 17.3 12.6 10.7 65 3.5 WSW 26 48 14 26 1005.6 1005.4 1.2
20/06:06pm 18.2 11.7 10.3 60 4.2 WSW 35 54 19 29 1005.1 1004.9 1.2
20/06:00pm 17.8 11.8 10.2 61 4.1 WSW 32 48 17 26 1005.0 1004.8 1.2
20/05:30pm 19.3 13.4 11.3 60 4.4 WSW 33 57 18 31 1004.6 1004.4 1.2
20/05:00pm 18.9 14.1 11.5 62 4.1 W 28 50 15 27 1003.9 1003.7 1.2
20/04:30pm 17.7 12.4 12.4 71 2.9 W 32 50 17 27 1003.4 1003.2 1.2
20/04:00pm 18.0 12.5 11.8 67 3.4 W 32 54 17 29 1002.8 1002.5 1.2
20/03:30pm 20.1 15.4 12.1 60 4.5 W 28 50 15 27 1002.3 1002.0 1.2
20/03:01pm 20.4 15.4 11.1 55 5.1 W 28 46 15 25 1001.8 1001.5 1.2
20/03:00pm 20.8 15.5 11.2 54 5.3 W 30 46 16 25 1001.7 1001.4 1.2
20/02:43pm 20.0 15.3 12.0 60 4.5 W 28 57 15 31 1001.4 1001.1 1.2
20/02:30pm 19.7 15.4 12.0 61 4.3 W 26 46 14 25 1001.4 1001.1 1.2
20/02:00pm 19.4 15.3 13.8 70 3.2 W 28 46 15 25 1001.3 1001.0 1.2
20/01:43pm 19.2 15.8 15.7 80 2.1 W 28 46 15 25 1001.2 1000.9 1.2
20/01:30pm 18.3 15.5 15.4 83 1.7 W 24 39 13 21 1001.0 1000.7 1.2
20/01:00pm 16.4 14.7 15.8 96 0.4 W 19 30 10 16 1000.9 1000.6 1.2
20/12:30pm 16.6 16.2 16.1 97 0.3 W 13 22 7 12 1000.2 999.9 1.0
20/12:00pm 17.2 14.6 14.8 86 1.4 W 22 37 12 20 999.2 998.9 1.0
20/11:30am 18.5 17.1 16.5 88 1.2 WNW 19 30 10 16 998.6 998.3 1.0
20/11:00am 18.1 15.5 15.9 87 1.3 WNW 24 37 13 20 997.7 997.4 1.0
20/10:30am 17.3 15.6 17.3 100 0.0 WNW 22 43 12 23 997.0 996.7 1.0
20/10:00am 17.8 16.9 17.8 100 0.0 WNW 19 32 10 17 996.6 996.3 0.8
20/09:30am 18.7 18.0 18.2 97 0.3 NNW 19 30 10 16 995.7 995.5 0.2
20/09:00am 18.3 18.4 18.3 100 0.0 NW 15 26 8 14 995.2 995.0 19.4
20/08:30am 18.1 17.3 18.1 100 0.0 NNW 19 35 10 19 994.8 994.6 19.4
20/08:00am 17.5 18.4 17.5 100 0.0 WNW 9 15 5 8 994.0 993.8 18.8
20/07:30am 17.4 18.8 17.4 100 0.0 ESE 6 9 3 5 992.5 992.3 17.2
20/07:00am 16.5 17.4 16.5 100 0.0 SSE 7 17 4 9 992.1 991.9 16.8
20/06:30am 16.1 16.0 16.1 100 0.0 SSE 11 26 6 14 992.9 992.7 16.8
20/06:00am 15.9 15.4 15.9 100 0.0 SSE 13 28 7 15 993.6 993.4 16.6
20/05:53am 15.9 16.2 15.9 100 0.0 SE 9 15 5 8 994.2 994.0 16.6
20/05:30am 16.1 17.4 16.1 100 0.0 SSE 4 9 2 5 996.2 996.0 15.8
20/05:00am 15.9 17.9 15.9 100 0.0 CALM 0 0 0 0 997.7 997.4 14.0
20/04:30am 16.3 18.4 16.3 100 0.0 CALM 0 0 0 0 998.3 998.0 12.2
20/04:00am 16.5 17.4 16.5 100 0.0 WNW 7 13 4 7 999.5 999.2 10.2
20/03:30am 17.5 18.8 17.5 100 0.0 WNW 7 11 4 6 1000.6 1000.3 7.4
20/03:00am 17.4 16.7 17.4 100 0.0 W 17 30 9 16 1001.2 1000.9 4.8
20/02:30am 17.3 14.4 17.1 99 0.1 W 28 46 15 25 1001.6 1001.3 1.6
20/02:20am 17.6 14.7 16.1 91 0.9 W 26 46 14 25 1001.0 1000.7 1.0
20/02:16am 17.9 15.6 15.7 87 1.3 W 22 41 12 22 1000.7 1000.4 0.4
20/02:00am 17.9 18.0 14.4 80 2.0 W 7 15 4 8 999.0 998.7 0.0
20/01:30am 18.6 20.0 14.3 76 2.5 CALM 0 4 0 2 997.8 997.5 0.0
20/01:00am 18.4 19.7 14.1 76 2.5 CALM 0 6 0 3 997.8 997.5 0.0
20/12:30am 18.3 19.5 13.8 75 2.6 CALM 0 0 0 0 998.6 998.3 0.0
20/12:00am 18.8 19.3 14.1 74 2.7 NW 4 7 2 4 998.9 998.6 0.0
 
Date/Time
EDT
Temp
°C
App
Temp
°C
Dew
Point
°C
Rel
Hum
%
Delta-T
°C
Wind Press
QNH
hPa
Press
MSL
hPa
Rain since
9am
mm
Dir  Spd
km/h
Gust
km/h
Spd
kts
Gust
kts
19/11:30pm 18.6 18.3 13.2 71 3.1 WNW 7 9 4 5 999.8 999.5 0.0
19/11:00pm 19.3 20.2 13.0 67 3.6 CALM 0 0 0 0 999.8 999.5 0.0
19/10:30pm 19.7 20.5 12.7 64 4.0 CALM 0 6 0 3 1001.0 1000.7 0.0
19/10:00pm 20.4 19.9 12.6 61 4.4 W 7 13 4 7 1002.1 1001.8 0.0
19/09:30pm 20.8 19.9 12.5 59 4.7 WNW 9 13 5 7 1002.5 1002.2 0.0
19/09:00pm 21.4 21.4 12.3 56 5.2 W 4 11 2 6 1003.0 1002.8 0.0
19/08:30pm 21.7 20.3 12.3 55 5.3 WSW 11 15 6 8 1003.8 1003.6 0.0
19/08:00pm 22.4 21.3 11.8 51 6.0 WSW 9 13 5 7 1004.2 1004.0 0.0
19/07:30pm 23.3 22.5 11.7 48 6.5 SW 7 11 4 6 1004.5 1004.3 0.0
19/07:00pm 24.4 23.1 12.4 47 6.9 SW 11 15 6 8 1005.0 1004.8 0.0
19/06:30pm 23.3 21.6 12.6 51 6.1 SW 13 17 7 9 1005.3 1005.1 0.0
19/06:00pm 22.7 20.4 11.7 49 6.2 SW 15 22 8 12 1005.7 1005.5 0.0
19/05:30pm 23.5 21.0 10.9 45 7.0 SW 15 22 8 12 1006.1 1005.9 0.0
19/05:00pm 25.4 23.5 11.9 43 7.7 SW 13 22 7 12 1006.5 1006.3 0.0
19/04:30pm 24.7 22.7 10.2 40 8.0 SW 11 17 6 9 1007.1 1006.9 0.0
19/04:00pm 25.1 22.7 10.2 39 8.3 SW 13 20 7 11 1007.8 1007.6 0.0
19/03:30pm 24.7 22.6 9.8 39 8.2 SSW 11 19 6 10 1008.3 1008.1 0.0
19/03:00pm 24.9 22.5 10.0 39 8.2 WSW 13 20 7 11 1009.0 1008.8 0.0
19/02:30pm 24.3 21.4 9.5 39 8.1 SW 15 22 8 12 1009.5 1009.3 0.0
19/02:00pm 24.0 22.2 8.0 36 8.5 SW 7 11 4 6 1009.9 1009.7 0.0
19/01:30pm 23.3 21.4 7.4 36 8.3 SE 7 15 4 8 1010.5 1010.3 0.0
19/01:00pm 22.5 20.4 8.2 40 7.6 SSW 9 17 5 9 1011.1 1010.9 0.0
19/12:30pm 21.6 19.7 7.4 40 7.3 S 7 15 4 8 1011.6 1011.4 0.0
19/12:00pm 20.4 18.6 8.1 45 6.4 SSE 7 15 4 8 1012.1 1011.9 0.0
19/11:30am 20.2 18.2 8.5 47 6.1 WSW 9 15 5 8 1012.5 1012.2 0.0
19/11:00am 19.3 17.0 7.4 46 6.1 S 9 19 5 10 1012.7 1012.4 0.0
19/10:30am 18.6 16.6 8.8 53 5.1 S 9 17 5 9 1013.2 1012.9 0.0
19/10:00am 17.5 15.2 8.9 57 4.5 SSW 11 20 6 11 1013.5 1013.2 0.0
19/09:30am 16.6 14.1 8.1 57 4.3 S 11 17 6 9 1013.8 1013.5 0.0
19/09:00am 15.7 12.9 8.4 62 3.7 SSW 13 22 7 12 1014.1 1013.8 0.0
19/08:30am 14.9 13.2 9.7 71 2.7 S 9 15 5 8 1014.4 1014.1 0.0
19/08:00am 12.9 11.5 9.5 80 1.7 WSW 7 9 4 5 1014.7 1014.4 0.0
19/07:30am 11.5 10.3 9.4 87 1.1 WSW 6 9 3 5 1014.6 1014.3 0.0
19/07:00am 10.6 9.0 8.9 89 0.8 W 7 9 4 5 1014.7 1014.4 0.0
19/06:30am 10.0 8.3 8.4 90 0.8 WSW 7 7 4 4 1014.4 1014.1 0.0
19/06:00am 10.5 9.0 8.4 87 1.0 WSW 6 7 3 4 1014.3 1014.0 0.0
19/05:30am 10.3 8.7 8.6 89 0.8 WSW 7 9 4 5 1014.5 1014.2 0.0
19/05:00am 10.5 8.8 8.3 86 1.1 WSW 7 11 4 6 1014.4 1014.1 0.0
19/04:30am 10.7 8.9 7.9 83 1.4 WSW 7 9 4 5 1014.6 1014.3 0.0
19/04:00am 10.9 9.1 8.0 82 1.4 WSW 7 9 4 5 1014.8 1014.5 0.0
19/03:30am 10.9 9.1 8.1 83 1.4 WSW 7 9 4 5 1014.8 1014.5 0.0
19/03:00am 11.3 9.6 7.6 78 1.8 SW 6 9 3 5 1015.4 1015.1 0.0
19/02:30am 11.6 9.7 7.5 76 2.0 SSW 7 9 4 5 1015.7 1015.4 0.0
19/02:00am 11.9 10.3 7.8 76 2.0 SSW 6 11 3 6 1016.1 1015.9 0.0
19/01:30am 12.1 11.1 7.4 73 2.3 SSE 2 7 1 4 1016.4 1016.2 0.0
19/01:00am 12.4 11.4 7.3 71 2.5 S 2 7 1 4 1016.7 1016.5 0.0
19/12:30am 13.0 11.7 7.5 69 2.7 SSW 4 13 2 7 1016.7 1016.5 0.0
19/12:00am 13.2 10.9 7.6 69 2.7 SSW 9 15 5 8 1016.6 1016.4 0.0
 
Date/Time
EDT
Temp
°C
App
Temp
°C
Dew
Point
°C
Rel
Hum
%
Delta-T
°C
Wind Press
QNH
hPa
Press
MSL
hPa
Rain since
9am
mm
Dir  Spd
km/h
Gust
km/h
Spd
kts
Gust
kts
18/11:30pm 13.2 11.4 7.9 70 2.6 SSW 7 11 4 6 1016.9 1016.7 0.0
18/11:00pm 13.6 11.8 7.8 68 2.9 S 7 9 4 5 1017.1 1016.9 0.0
18/10:30pm 14.4 11.9 8.1 66 3.2 S 11 20 6 11 1017.0 1016.8 0.0
18/10:00pm 14.6 11.6 7.9 64 3.3 SW 13 20 7 11 1017.0 1016.8 0.0
18/09:30pm 15.1 11.9 6.9 58 4.0 SW 13 24 7 13 1016.8 1016.6 0.0
18/09:00pm 15.5 12.1 6.0 53 4.6 SW 13 19 7 10 1016.8 1016.6 0.0
18/08:30pm 16.3 12.8 5.3 48 5.3 SSW 13 22 7 12 1016.7 1016.5 0.0
18/08:00pm 17.2 13.8 5.8 47 5.5 S 13 22 7 12 1016.2 1016.0 0.0
18/07:30pm 18.2 14.9 6.4 46 5.9 S 13 32 7 17 1015.9 1015.6 0.0
18/07:00pm 19.4 15.3 8.7 50 5.6 SW 20 33 11 18 1015.5 1015.2 0.0
18/06:30pm 18.9 14.3 8.0 49 5.6 SSW 22 39 12 21 1015.4 1015.1 0.0
18/06:00pm 20.1 15.2 8.4 47 6.1 SSW 24 41 13 22 1015.2 1014.9 0.0
18/05:30pm 19.8 15.5 7.2 44 6.4 SSW 19 35 10 19 1015.3 1015.0 0.0
18/05:00pm 20.4 16.2 7.4 43 6.7 SSW 19 33 10 18 1015.3 1015.0 0.0
18/04:30pm 20.7 16.6 6.3 39 7.3 SSW 17 32 9 17 1015.3 1015.0 0.0
18/04:00pm 20.5 15.8 6.1 39 7.2 SSW 20 35 11 19 1015.4 1015.1 0.0
18/03:30pm 20.5 15.1 7.8 44 6.6 SW 26 39 14 21 1015.2 1014.9 0.0
18/03:00pm 20.7 16.0 7.7 43 6.7 SW 22 39 12 21 1015.3 1015.0 0.0
18/02:30pm 20.5 15.0 7.5 43 6.7 SW 26 41 14 22 1015.5 1015.2 0.0
18/02:00pm 20.4 15.2 7.1 42 6.8 SW 24 39 13 21 1015.7 1015.4 0.0
18/01:30pm 20.6 16.4 8.3 45 6.4 W 20 32 11 17 1015.7 1015.4 0.0

Latest Capital City Observations: Canberra | Sydney | Melbourne | Brisbane | Adelaide | Perth | Hobart | Darwin

Other Formats:

Comma delimited format used in spreadsheet applications
http://www.bom.gov.au/fwo/IDV60901/IDV60901.95874.axf

JavaScript Object Notation format (JSON) in row-major order
http://www.bom.gov.au/fwo/IDV60901/IDV60901.95874.json